Time;durP1;ratioP1;P1;durP2;ratioP2;P2;SDS_P1;SDS_P2;PMS_P1;PMS_P2;Temp;Humidity;BMP_temperature;BMP_pressure;BME280_temperature;BME280_humidity;BME280_pressure;Samples;Min_cycle;Max_cycle;Signal;HPM_P1;HPM_P2
2023/01/25 00:02:17;;;;;;;44.77;21.80;;;;;;;;;;1894141;76;21148;-57
2023/01/25 00:04:46;;;;;;;48.78;24.27;;;;;;;;;;1894160;76;21133;-57
2023/01/25 00:07:15;;;;;;;52.78;25.35;;;;;;;;;;1894134;76;21038;-58
2023/01/25 00:09:43;;;;;;;52.55;23.73;;;;;;;;;;1894016;75;21139;-57
2023/01/25 00:12:11;;;;;;;52.23;25.35;;;;;;;;;;1894067;76;21091;-57
2023/01/25 00:14:40;;;;;;;54.93;27.25;;;;;;;;;;1894025;76;21163;-57
2023/01/25 00:17:09;;;;;;;49.75;25.80;;;;;;;;;;1894079;76;21015;-57
2023/01/25 00:19:37;;;;;;;50.38;26.05;;;;;;;;;;1894050;76;21042;-57
2023/01/25 00:22:05;;;;;;;55.03;25.48;;;;;;;;;;1894003;74;21138;-57
2023/01/25 00:24:34;;;;;;;57.10;28.20;;;;;;;;;;1894133;76;21018;-57
2023/01/25 00:27:02;;;;;;;59.63;26.62;;;;;;;;;;1894025;76;21027;-57
2023/01/25 00:29:32;;;;;;;55.95;22.40;;;;;;;;;;1894133;76;21014;-57
2023/01/25 00:32:02;;;;;;;50.05;24.98;;;;;;;;;;1894084;76;21026;-57
2023/01/25 00:34:48;;;;;;;50.23;24.25;;;;;;;;;;1893813;75;21085;-57
2023/01/25 00:37:21;;;;;;;52.80;24.72;;;;;;;;;;1894204;75;21614;-57
2023/01/25 00:39:50;;;;;;;41.60;23.52;;;;;;;;;;1888088;75;21436;-57
2023/01/25 00:42:19;;;;;;;49.90;25.90;;;;;;;;;;1894063;76;21042;-57
2023/01/25 00:44:47;;;;;;;45.92;23.62;;;;;;;;;;1894132;76;21030;-57
2023/01/25 00:47:16;;;;;;;45.43;22.90;;;;;;;;;;1894016;76;21077;-58
2023/01/25 00:49:45;;;;;;;46.58;22.80;;;;;;;;;;1894057;76;21010;-57
2023/01/25 00:52:14;;;;;;;49.20;25.17;;;;;;;;;;1894073;76;21042;-57
2023/01/25 00:54:42;;;;;;;41.95;22.55;;;;;;;;;;1894004;76;21042;-57
2023/01/25 00:57:11;;;;;;;50.65;23.98;;;;;;;;;;1894096;76;21100;-57
2023/01/25 00:59:43;;;;;;;46.13;23.07;;;;;;;;;;1893948;76;21042;-58
2023/01/25 01:02:09;;;;;;;49.55;24.20;;;;;;;;;;1893842;75;21584;-58
2023/01/25 01:04:38;;;;;;;44.80;21.60;;;;;;;;;;1894024;75;21010;-57
2023/01/25 01:07:06;;;;;;;44.15;23.42;;;;;;;;;;1893876;76;21204;-57
2023/01/25 01:09:35;;;;;;;56.70;22.60;;;;;;;;;;1893948;76;21038;-57
2023/01/25 01:12:03;;;;;;;42.55;19.70;;;;;;;;;;1893954;76;21173;-57
2023/01/25 01:14:32;;;;;;;34.10;18.52;;;;;;;;;;1893935;76;21022;-57
2023/01/25 01:17:00;;;;;;;39.65;19.42;;;;;;;;;;1894056;76;21002;-57
2023/01/25 01:19:29;;;;;;;55.05;22.85;;;;;;;;;;1894045;76;21172;-57
2023/01/25 01:21:58;;;;;;;64.22;25.37;;;;;;;;;;1894037;76;21067;-57
2023/01/25 01:24:28;;;;;;;63.05;25.10;;;;;;;;;;1893829;75;21142;-57
2023/01/25 01:26:57;;;;;;;62.95;26.90;;;;;;;;;;1894021;76;21074;-57
2023/01/25 01:29:25;;;;;;;60.98;22.87;;;;;;;;;;1894019;76;21162;-57
2023/01/25 01:31:55;;;;;;;80.60;24.25;;;;;;;;;;1894063;76;21042;-57
2023/01/25 01:34:25;;;;;;;80.53;21.23;;;;;;;;;;1893976;76;21126;-56
2023/01/25 01:36:54;;;;;;;50.80;21.70;;;;;;;;;;1894057;76;21103;-57
2023/01/25 01:39:23;;;;;;;51.50;22.00;;;;;;;;;;1893981;74;21102;-57
2023/01/25 01:41:51;;;;;;;48.05;21.50;;;;;;;;;;1894152;76;21022;-57
2023/01/25 01:44:23;;;;;;;56.23;23.52;;;;;;;;;;1894004;76;21158;-57
2023/01/25 01:46:57;;;;;;;51.30;20.40;;;;;;;;;;1893744;75;21619;-57
2023/01/25 01:49:28;;;;;;;42.10;20.40;;;;;;;;;;1894036;75;21291;-57
2023/01/25 01:52:02;;;;;;;66.70;23.22;;;;;;;;;;1893463;75;21086;-57
2023/01/25 01:54:39;;;;;;;117.05;27.05;;;;;;;;;;1893948;75;21183;-57
2023/01/25 01:57:10;;;;;;;145.43;30.45;;;;;;;;;;1894033;76;21261;-57
2023/01/25 01:59:46;;;;;;;125.72;31.20;;;;;;;;;;1894000;76;21231;-57
2023/01/25 02:02:15;;;;;;;156.22;29.50;;;;;;;;;;1894101;75;21599;-57
2023/01/25 02:04:45;;;;;;;135.07;29.27;;;;;;;;;;1894153;76;21258;-57
2023/01/25 02:07:19;;;;;;;172.15;29.95;;;;;;;;;;1894171;76;21593;-57
2023/01/25 02:09:49;;;;;;;143.10;31.60;;;;;;;;;;1894079;76;21003;-57
2023/01/25 02:12:18;;;;;;;156.07;29.27;;;;;;;;;;1894012;75;21147;-58
2023/01/25 02:14:48;;;;;;;233.10;30.23;;;;;;;;;;1893959;76;21214;-57
2023/01/25 02:17:22;;;;;;;166.77;29.55;;;;;;;;;;1893907;75;21207;-57
2023/01/25 02:19:52;;;;;;;185.30;32.73;;;;;;;;;;1893994;76;21203;-57
2023/01/25 02:22:22;;;;;;;228.10;39.25;;;;;;;;;;1893302;75;22084;-57
2023/01/25 02:24:52;;;;;;;195.43;31.87;;;;;;;;;;1880756;75;21198;-57
2023/01/25 02:27:21;;;;;;;190.05;35.33;;;;;;;;;;1872122;76;21716;-57
2023/01/25 02:29:49;;;;;;;132.10;30.48;;;;;;;;;;1872437;77;21193;-57
2023/01/25 02:32:18;;;;;;;159.75;37.60;;;;;;;;;;1872592;77;21095;-57
2023/01/25 02:34:46;;;;;;;101.62;29.87;;;;;;;;;;1872434;77;21263;-57
2023/01/25 02:37:15;;;;;;;96.42;29.42;;;;;;;;;;1872526;77;21100;-57
2023/01/25 02:39:44;;;;;;;95.75;33.83;;;;;;;;;;1872466;77;21167;-57
2023/01/25 02:42:12;;;;;;;88.42;28.85;;;;;;;;;;1872436;77;21347;-56
2023/01/25 02:44:43;;;;;;;81.53;28.73;;;;;;;;;;1872300;76;21168;-56
2023/01/25 02:47:12;;;;;;;90.55;30.77;;;;;;;;;;1872563;77;21185;-56
2023/01/25 02:49:40;;;;;;;71.80;29.60;;;;;;;;;;1872466;77;21661;-56
2023/01/25 02:52:09;;;;;;;70.20;28.73;;;;;;;;;;1872634;77;21003;-56
2023/01/25 02:54:38;;;;;;;74.32;26.02;;;;;;;;;;1872451;75;21272;-56
2023/01/25 02:57:07;;;;;;;72.50;29.18;;;;;;;;;;1872517;77;21226;-57
2023/01/25 02:59:37;;;;;;;109.67;31.30;;;;;;;;;;1871940;76;21126;-57
2023/01/25 03:02:06;;;;;;;102.42;28.55;;;;;;;;;;1872511;77;21139;-57
2023/01/25 03:04:35;;;;;;;100.62;29.07;;;;;;;;;;1872636;77;21139;-56
2023/01/25 03:07:04;;;;;;;68.72;30.85;;;;;;;;;;1872476;77;21217;-57
2023/01/25 03:09:32;;;;;;;69.07;24.25;;;;;;;;;;1872589;77;21096;-56
2023/01/25 03:12:01;;;;;;;79.75;24.90;;;;;;;;;;1872551;77;21220;-56
2023/01/25 03:14:30;;;;;;;66.65;23.95;;;;;;;;;;1872532;77;21103;-56
2023/01/25 03:16:58;;;;;;;63.68;22.73;;;;;;;;;;1872554;77;21658;-57
2023/01/25 03:19:27;;;;;;;58.60;23.20;;;;;;;;;;1872501;77;21111;-57
2023/01/25 03:21:57;;;;;;;54.48;22.05;;;;;;;;;;1872748;77;21079;-57
2023/01/25 03:24:26;;;;;;;67.37;24.63;;;;;;;;;;1872627;75;21119;-57
2023/01/25 03:27:10;;;;;;;81.85;26.30;;;;;;;;;;1872530;77;21336;-57
2023/01/25 03:29:49;;;;;;;70.40;24.60;;;;;;;;;;1870614;76;21263;-58
2023/01/25 03:32:19;;;;;;;118.60;24.67;;;;;;;;;;1872359;76;21079;-59
2023/01/25 03:34:48;;;;;;;63.60;26.73;;;;;;;;;;1872656;77;21342;-58
2023/01/25 03:37:17;;;;;;;77.32;24.67;;;;;;;;;;1872530;77;21135;-59
2023/01/25 03:39:46;;;;;;;59.40;22.75;;;;;;;;;;1872544;77;21157;-58
2023/01/25 03:42:15;;;;;;;79.22;21.40;;;;;;;;;;1872579;77;21103;-58
2023/01/25 03:44:44;;;;;;;64.72;21.07;;;;;;;;;;1872675;77;21184;-59
2023/01/25 03:47:13;;;;;;;55.95;21.90;;;;;;;;;;1872783;77;21031;-59
2023/01/25 03:49:42;;;;;;;63.30;20.50;;;;;;;;;;1872569;77;21099;-58
2023/01/25 03:52:10;;;;;;;56.25;24.52;;;;;;;;;;1872589;77;21103;-58
2023/01/25 03:54:40;;;;;;;62.85;22.35;;;;;;;;;;1872474;76;21259;-58
2023/01/25 03:57:10;;;;;;;57.70;23.12;;;;;;;;;;1872572;77;21038;-58
2023/01/25 03:59:40;;;;;;;51.77;23.27;;;;;;;;;;1871776;76;21144;-59
2023/01/25 04:02:08;;;;;;;70.45;21.15;;;;;;;;;;1872545;77;21047;-58
2023/01/25 04:04:37;;;;;;;62.15;21.10;;;;;;;;;;1872543;77;21202;-58
2023/01/25 04:07:05;;;;;;;66.80;22.90;;;;;;;;;;1872534;77;21159;-59
2023/01/25 04:09:34;;;;;;;86.08;22.05;;;;;;;;;;1872527;77;21177;-59
2023/01/25 04:12:03;;;;;;;91.08;23.45;;;;;;;;;;1872540;77;21195;-59
2023/01/25 04:14:32;;;;;;;63.02;23.20;;;;;;;;;;1872565;77;21274;-59
2023/01/25 04:17:04;;;;;;;65.42;24.43;;;;;;;;;;1872454;76;21321;-59
2023/01/25 04:19:34;;;;;;;71.70;29.32;;;;;;;;;;1872215;76;21150;-59
2023/01/25 04:22:03;;;;;;;78.05;29.85;;;;;;;;;;1872470;77;21163;-59
2023/01/25 04:24:36;;;;;;;224.40;66.20;;;;;;;;;;1872421;75;21118;-58
2023/01/25 04:27:05;;;;;;;136.70;40.83;;;;;;;;;;1872549;77;21209;-58
2023/01/25 04:29:35;;;;;;;87.72;31.85;;;;;;;;;;1872189;76;21134;-59
2023/01/25 04:32:05;;;;;;;69.95;30.05;;;;;;;;;;1872546;77;21139;-59
2023/01/25 04:34:34;;;;;;;61.53;25.75;;;;;;;;;;1872587;77;21117;-58
2023/01/25 04:37:02;;;;;;;69.82;28.50;;;;;;;;;;1872533;77;21099;-58
2023/01/25 04:39:32;;;;;;;86.90;29.95;;;;;;;;;;1872373;76;21257;-59
2023/01/25 04:42:01;;;;;;;94.50;30.25;;;;;;;;;;1872459;77;21219;-58
2023/01/25 04:44:29;;;;;;;117.70;31.57;;;;;;;;;;1872596;77;21277;-59
2023/01/25 04:46:58;;;;;;;114.32;28.25;;;;;;;;;;1872429;77;21341;-58
2023/01/25 04:49:27;;;;;;;110.78;28.15;;;;;;;;;;1872558;77;21099;-58
2023/01/25 04:51:56;;;;;;;70.90;27.70;;;;;;;;;;1872842;77;21035;-58
2023/01/25 04:54:25;;;;;;;86.85;26.57;;;;;;;;;;1872625;77;21166;-59
2023/01/25 04:56:54;;;;;;;73.97;27.20;;;;;;;;;;1872606;77;21211;-59
2023/01/25 04:59:23;;;;;;;72.42;24.80;;;;;;;;;;1872731;77;21159;-58
2023/01/25 05:01:51;;;;;;;60.75;22.48;;;;;;;;;;1872576;75;21135;-58
2023/01/25 05:04:20;;;;;;;116.73;28.77;;;;;;;;;;1872741;77;21122;-58
2023/01/25 05:06:50;;;;;;;79.90;25.35;;;;;;;;;;1872674;77;21019;-58
2023/01/25 05:09:18;;;;;;;76.82;27.55;;;;;;;;;;1872683;77;21264;-58
2023/01/25 05:11:47;;;;;;;79.03;30.17;;;;;;;;;;1872613;77;21211;-58
2023/01/25 05:14:20;;;;;;;101.97;30.37;;;;;;;;;;1870333;76;21199;-58
2023/01/25 05:16:49;;;;;;;153.02;31.23;;;;;;;;;;1872612;77;21103;-58
2023/01/25 05:19:17;;;;;;;101.40;28.75;;;;;;;;;;1872677;77;21188;-58
2023/01/25 05:21:59;;;;;;;124.05;28.95;;;;;;;;;;1870883;76;21170;-58
2023/01/25 05:24:35;;;;;;;66.15;26.97;;;;;;;;;;1872259;76;21139;-58
2023/01/25 05:27:06;;;;;;;96.67;31.97;;;;;;;;;;1892027;75;21138;-58
2023/01/25 05:29:43;;;;;;;97.42;34.58;;;;;;;;;;1841405;75;21241;-58
2023/01/25 05:32:16;;;;;;;74.85;31.77;;;;;;;;;;1894097;75;21151;-58
2023/01/25 05:34:45;;;;;;;160.52;32.67;;;;;;;;;;1893936;76;21742;-57
2023/01/25 05:37:16;;;;;;;183.52;69.87;;;;;;;;;;1893938;74;21156;-58
2023/01/25 05:39:46;;;;;;;154.40;41.15;;;;;;;;;;1894054;75;21601;-58
2023/01/25 05:42:16;;;;;;;105.58;37.65;;;;;;;;;;1894135;76;21138;-58
2023/01/25 05:44:44;;;;;;;89.75;33.85;;;;;;;;;;1893917;76;21278;-58
2023/01/25 05:47:15;;;;;;;111.62;33.90;;;;;;;;;;1893913;76;21243;-57
2023/01/25 05:49:44;;;;;;;91.47;32.33;;;;;;;;;;1893993;76;21172;-57
2023/01/25 05:52:15;;;;;;;118.50;38.42;;;;;;;;;;1893429;75;21070;-58
2023/01/25 05:54:43;;;;;;;102.82;32.17;;;;;;;;;;1894090;76;21162;-58
2023/01/25 05:57:16;;;;;;;146.47;33.80;;;;;;;;;;1893985;76;21167;-58
2023/01/25 05:59:45;;;;;;;79.07;31.95;;;;;;;;;;1894158;76;21071;-57
2023/01/25 06:02:15;;;;;;;103.47;32.67;;;;;;;;;;1893961;76;21082;-57
2023/01/25 06:04:44;;;;;;;88.80;32.67;;;;;;;;;;1893995;75;21168;-57
2023/01/25 06:07:13;;;;;;;113.92;28.45;;;;;;;;;;1894019;75;21160;-57
2023/01/25 06:09:42;;;;;;;142.75;31.07;;;;;;;;;;1893972;76;21162;-57
2023/01/25 06:12:11;;;;;;;103.15;34.70;;;;;;;;;;1894117;76;21038;-57
2023/01/25 06:14:39;;;;;;;146.00;33.35;;;;;;;;;;1894080;76;21030;-57
2023/01/25 06:17:08;;;;;;;97.37;33.73;;;;;;;;;;1894132;76;21185;-57
2023/01/25 06:19:50;;;;;;;102.50;33.48;;;;;;;;;;1892811;75;21132;-57
2023/01/25 06:22:20;;;;;;;125.45;34.85;;;;;;;;;;1888516;75;21202;-58
2023/01/25 06:24:48;;;;;;;76.57;30.95;;;;;;;;;;1893987;76;21114;-57
2023/01/25 06:27:17;;;;;;;90.55;34.13;;;;;;;;;;1893999;76;21174;-57
2023/01/25 06:29:45;;;;;;;109.90;33.98;;;;;;;;;;1894109;76;21094;-57
2023/01/25 06:32:14;;;;;;;106.47;39.58;;;;;;;;;;1894005;76;21034;-57
2023/01/25 06:34:42;;;;;;;126.72;62.60;;;;;;;;;;1893958;76;21058;-57
2023/01/25 06:37:12;;;;;;;152.53;55.20;;;;;;;;;;1893256;75;21074;-57
2023/01/25 06:39:40;;;;;;;122.98;48.42;;;;;;;;;;1894149;76;21112;-57
2023/01/25 06:42:09;;;;;;;102.53;34.48;;;;;;;;;;1894395;76;21026;-57
2023/01/25 06:44:37;;;;;;;90.55;33.45;;;;;;;;;;1894179;76;21086;-57
2023/01/25 06:47:07;;;;;;;92.57;35.60;;;;;;;;;;1894325;75;21085;-58
2023/01/25 06:49:36;;;;;;;96.02;38.58;;;;;;;;;;1894209;76;21050;-58
2023/01/25 06:52:04;;;;;;;81.35;35.90;;;;;;;;;;1894121;76;21154;-58
2023/01/25 06:54:33;;;;;;;82.08;38.48;;;;;;;;;;1894313;76;21026;-57
2023/01/25 06:57:02;;;;;;;80.32;35.33;;;;;;;;;;1894220;76;21031;-57
2023/01/25 06:59:30;;;;;;;75.47;36.25;;;;;;;;;;1894188;76;21108;-58
2023/01/25 07:01:59;;;;;;;84.92;35.00;;;;;;;;;;1894217;76;21022;-57
2023/01/25 07:04:27;;;;;;;66.55;32.58;;;;;;;;;;1894215;75;21100;-57
2023/01/25 07:06:55;;;;;;;73.72;32.25;;;;;;;;;;1894143;76;21050;-57
2023/01/25 07:09:24;;;;;;;69.15;34.53;;;;;;;;;;1894186;76;21022;-57
2023/01/25 07:11:53;;;;;;;70.75;30.75;;;;;;;;;;1894256;76;21046;-57
2023/01/25 07:14:21;;;;;;;67.58;31.93;;;;;;;;;;1894211;76;21042;-58
2023/01/25 07:16:50;;;;;;;69.00;29.80;;;;;;;;;;1894334;76;21127;-57
2023/01/25 07:19:18;;;;;;;69.62;29.25;;;;;;;;;;1894118;76;21147;-57
2023/01/25 07:21:47;;;;;;;62.38;29.92;;;;;;;;;;1894238;76;21034;-57
2023/01/25 07:24:16;;;;;;;77.60;30.85;;;;;;;;;;1893963;76;21121;-58
2023/01/25 07:26:45;;;;;;;71.30;27.93;;;;;;;;;;1883742;76;21083;-57
2023/01/25 07:29:15;;;;;;;53.30;28.12;;;;;;;;;;1862200;76;21115;-57
2023/01/25 07:31:43;;;;;;;64.58;28.65;;;;;;;;;;1890444;76;21538;-57
2023/01/25 07:34:12;;;;;;;61.05;28.77;;;;;;;;;;1892231;76;21005;-57
2023/01/25 07:36:40;;;;;;;73.05;33.30;;;;;;;;;;1891879;76;21017;-57
2023/01/25 07:39:12;;;;;;;54.67;28.50;;;;;;;;;;1891955;76;21049;-57
2023/01/25 07:41:41;;;;;;;60.43;27.73;;;;;;;;;;1891554;76;21098;-57
2023/01/25 07:44:11;;;;;;;61.40;29.18;;;;;;;;;;1890751;76;21041;-57
2023/01/25 07:46:41;;;;;;;54.42;27.05;;;;;;;;;;1890608;76;21032;-58
2023/01/25 07:49:10;;;;;;;57.38;26.20;;;;;;;;;;1891944;76;21021;-58
2023/01/25 07:51:39;;;;;;;57.73;26.93;;;;;;;;;;1892078;76;21076;-58
2023/01/25 07:54:09;;;;;;;56.70;25.77;;;;;;;;;;1890200;76;21045;-58
2023/01/25 07:56:39;;;;;;;67.37;30.88;;;;;;;;;;1886949;76;21468;-58
2023/01/25 07:59:07;;;;;;;76.10;35.83;;;;;;;;;;1887104;76;21021;-58
2023/01/25 08:01:36;;;;;;;56.42;30.10;;;;;;;;;;1887076;76;21018;-57
2023/01/25 08:04:05;;;;;;;73.60;35.38;;;;;;;;;;1886895;76;21034;-58
2023/01/25 08:06:37;;;;;;;78.55;36.05;;;;;;;;;;1887020;76;21165;-56
2023/01/25 08:09:06;;;;;;;65.87;33.67;;;;;;;;;;1886903;76;21054;-61
2023/01/25 08:11:35;;;;;;;81.95;39.15;;;;;;;;;;1886437;75;21109;-61
2023/01/25 08:14:04;;;;;;;83.55;35.60;;;;;;;;;;1886950;76;21053;-62
2023/01/25 08:16:34;;;;;;;74.60;33.53;;;;;;;;;;1886781;76;21100;-62
2023/01/25 08:19:03;;;;;;;72.20;34.13;;;;;;;;;;1887002;76;21549;-62
2023/01/25 08:21:33;;;;;;;79.97;35.50;;;;;;;;;;1887009;76;21029;-61
2023/01/25 08:24:03;;;;;;;110.83;49.88;;;;;;;;;;1886824;76;21085;-62
2023/01/25 08:26:32;;;;;;;71.53;36.13;;;;;;;;;;1887061;76;21163;-62
2023/01/25 08:29:00;;;;;;;79.95;37.45;;;;;;;;;;1883865;75;21139;-62
2023/01/25 08:31:30;;;;;;;89.75;41.77;;;;;;;;;;1865765;77;21108;-61
2023/01/25 08:33:59;;;;;;;94.17;43.95;;;;;;;;;;1865733;77;21094;-51
2023/01/25 08:36:28;;;;;;;86.80;38.17;;;;;;;;;;1864068;77;21390;-47
2023/01/25 08:38:58;;;;;;;77.42;40.33;;;;;;;;;;1864219;77;20995;-51
2023/01/25 08:41:27;;;;;;;92.55;37.05;;;;;;;;;;1868320;77;21120;-47
2023/01/25 08:44:00;;;;;;;76.02;35.75;;;;;;;;;;1864075;77;21008;-49
2023/01/25 08:46:29;;;;;;;78.80;36.98;;;;;;;;;;1868402;77;21663;-54
2023/01/25 08:48:58;;;;;;;73.92;38.42;;;;;;;;;;1865157;76;21440;-58
2023/01/25 08:51:27;;;;;;;67.55;36.03;;;;;;;;;;1867897;77;21027;-55
2023/01/25 08:53:56;;;;;;;63.55;31.27;;;;;;;;;;1864305;77;21011;-51
2023/01/25 08:56:24;;;;;;;73.87;35.03;;;;;;;;;;1868250;77;21092;-52
2023/01/25 08:58:53;;;;;;;67.75;34.85;;;;;;;;;;1867715;77;21038;-54
2023/01/25 09:01:21;;;;;;;81.80;34.33;;;;;;;;;;1866541;77;21418;-48
2023/01/25 09:03:51;;;;;;;72.27;33.65;;;;;;;;;;1871642;75;21015;-54
2023/01/25 09:06:19;;;;;;;61.35;28.98;;;;;;;;;;1871280;77;21037;-61
2023/01/25 09:08:48;;;;;;;67.65;30.72;;;;;;;;;;1864958;77;21547;-61
2023/01/25 09:11:17;;;;;;;61.92;29.23;;;;;;;;;;1864937;77;21123;-62
2023/01/25 09:13:47;;;;;;;35.48;20.40;;;;;;;;;;1865763;77;21512;-66
2023/01/25 09:16:17;;;;;;;50.33;22.22;;;;;;;;;;1869623;77;21106;-60
2023/01/25 09:18:46;;;;;;;59.03;29.98;;;;;;;;;;1871808;77;21094;-60
2023/01/25 09:21:17;;;;;;;60.23;30.05;;;;;;;;;;1871400;77;21172;-64
2023/01/25 09:23:47;;;;;;;66.80;26.85;;;;;;;;;;1871510;77;21106;-61
2023/01/25 09:26:16;;;;;;;46.35;23.32;;;;;;;;;;1870362;77;21042;-62
2023/01/25 09:28:49;;;;;;;36.30;17.48;;;;;;;;;;1871543;75;21039;-68
2023/01/25 09:31:17;;;;;;;50.08;23.40;;;;;;;;;;1889450;76;21156;-62
2023/01/25 09:33:57;;;;;;;45.33;21.80;;;;;;;;;;1891704;76;21191;-61
2023/01/25 09:36:26;;;;;;;40.03;20.50;;;;;;;;;;1893216;76;21097;-58
2023/01/25 09:38:55;;;;;;;45.48;24.00;;;;;;;;;;1893431;76;21100;-62
2023/01/25 09:41:43;;;;;;;50.73;24.90;;;;;;;;;;1893551;76;21026;-57
2023/01/25 09:44:13;;;;;;;53.75;21.60;;;;;;;;;;1893377;76;20998;-59
2023/01/25 09:46:43;;;;;;;39.58;20.92;;;;;;;;;;1893341;76;21145;-63
2023/01/25 09:49:13;;;;;;;55.23;27.20;;;;;;;;;;1893220;76;21473;-62
2023/01/25 09:51:55;;;;;;;49.03;24.27;;;;;;;;;;1893233;75;21092;-62
2023/01/25 09:54:23;;;;;;;45.90;24.05;;;;;;;;;;1892672;75;21093;-61
2023/01/25 09:56:52;;;;;;;45.78;23.75;;;;;;;;;;1893333;76;21027;-62
2023/01/25 09:59:22;;;;;;;54.60;24.00;;;;;;;;;;1893384;75;21180;-62
2023/01/25 10:02:04;;;;;;;44.55;21.60;;;;;;;;;;1893332;75;21509;-63
2023/01/25 10:04:42;;;;;;;43.90;21.75;;;;;;;;;;1893210;76;21074;-68
2023/01/25 10:07:21;;;;;;;47.48;24.05;;;;;;;;;;1893298;76;21081;-68
2023/01/25 10:09:50;;;;;;;45.98;21.97;;;;;;;;;;1893344;76;21053;-68
2023/01/25 10:12:20;;;;;;;59.58;24.43;;;;;;;;;;1893041;76;21541;-63
2023/01/25 10:14:49;;;;;;;40.58;21.15;;;;;;;;;;1893226;75;21073;-63
2023/01/25 10:17:24;;;;;;;52.98;25.37;;;;;;;;;;1892973;76;21376;-63
2023/01/25 10:19:54;;;;;;;25.48;13.83;;;;;;;;;;1892427;75;21083;-63
2023/01/25 10:22:30;;;;;;;25.75;12.13;;;;;;;;;;1892293;75;21164;-63
2023/01/25 10:25:00;;;;;;;50.28;24.63;;;;;;;;;;1893963;75;21026;-62
2023/01/25 10:27:39;;;;;;;51.85;24.80;;;;;;;;;;1893769;75;21078;-61
2023/01/25 10:30:15;;;;;;;52.62;25.23;;;;;;;;;;1887431;75;21355;-58
2023/01/25 10:32:43;;;;;;;46.95;24.82;;;;;;;;;;1869483;76;21010;-60
2023/01/25 10:35:16;;;;;;;27.52;14.60;;;;;;;;;;1871018;77;21022;-58
2023/01/25 10:37:45;;;;;;;47.53;23.95;;;;;;;;;;1870957;77;21014;-58
2023/01/25 10:40:24;;;;;;;36.00;18.52;;;;;;;;;;1870966;77;21399;-58
2023/01/25 10:42:54;;;;;;;28.70;14.65;;;;;;;;;;1871077;77;21480;-58
2023/01/25 10:45:22;;;;;;;50.85;23.20;;;;;;;;;;1870996;77;21104;-58
2023/01/25 10:48:04;;;;;;;34.67;17.15;;;;;;;;;;1870823;77;21042;-58
2023/01/25 10:50:47;;;;;;;48.45;23.05;;;;;;;;;;1870976;77;21076;-58
2023/01/25 10:53:20;;;;;;;20.02;11.68;;;;;;;;;;1869606;76;21096;-58
2023/01/25 10:55:55;;;;;;;35.52;18.62;;;;;;;;;;1870624;76;21111;-59
2023/01/25 10:58:34;;;;;;;40.40;21.77;;;;;;;;;;1870946;77;21025;-58
2023/01/25 11:01:05;;;;;;;31.68;15.38;;;;;;;;;;1870732;76;21100;-58
2023/01/25 11:03:36;;;;;;;42.23;21.40;;;;;;;;;;1870974;77;21128;-58
2023/01/25 11:06:05;;;;;;;39.10;20.27;;;;;;;;;;1870984;77;21121;-58
2023/01/25 11:08:35;;;;;;;43.45;20.50;;;;;;;;;;1870965;77;20986;-58
2023/01/25 11:11:16;;;;;;;36.77;18.80;;;;;;;;;;1870990;77;20986;-58
2023/01/25 11:13:45;;;;;;;47.43;22.80;;;;;;;;;;1871042;77;21010;-58
2023/01/25 11:16:14;;;;;;;30.17;17.30;;;;;;;;;;1870996;76;20986;-58
2023/01/25 11:18:51;;;;;;;44.85;21.68;;;;;;;;;;1870917;77;21042;-58
2023/01/25 11:21:22;;;;;;;40.30;19.00;;;;;;;;;;1871010;77;20970;-59
2023/01/25 11:24:10;;;;;;;52.20;24.02;;;;;;;;;;1870960;77;21010;-59
2023/01/25 11:26:39;;;;;;;39.15;18.45;;;;;;;;;;1871039;77;21111;-59
2023/01/25 11:29:09;;;;;;;36.40;18.67;;;;;;;;;;1870997;77;21081;-58
2023/01/25 11:31:44;;;;;;;46.92;19.50;;;;;;;;;;1883028;76;21017;-58
2023/01/25 11:34:10;;;;;;;45.65;21.62;;;;;;;;;;1891081;76;21009;-59
2023/01/25 11:36:46;;;;;;;41.35;19.70;;;;;;;;;;1892150;76;21131;-58
2023/01/25 11:39:33;;;;;;;37.03;18.00;;;;;;;;;;1891376;76;21037;-59
2023/01/25 11:42:03;;;;;;;45.17;19.87;;;;;;;;;;1892082;76;21001;-58
2023/01/25 11:44:32;;;;;;;39.15;20.92;;;;;;;;;;1892052;76;21475;-59
2023/01/25 11:47:08;;;;;;;46.33;23.32;;;;;;;;;;1892152;76;21072;-59
2023/01/25 11:49:47;;;;;;;27.77;13.03;;;;;;;;;;1892145;76;21041;-59
2023/01/25 11:52:23;;;;;;;41.55;20.95;;;;;;;;;;1891202;76;21292;-59
2023/01/25 11:54:56;;;;;;;52.58;23.77;;;;;;;;;;1892107;76;20990;-59
2023/01/25 11:57:26;;;;;;;52.62;24.00;;;;;;;;;;1891657;76;21013;-58
2023/01/25 11:59:55;;;;;;;47.53;23.20;;;;;;;;;;1891694;76;21525;-59
2023/01/25 12:02:41;;;;;;;50.95;24.87;;;;;;;;;;1892080;76;21091;-59
2023/01/25 12:05:10;;;;;;;52.45;24.57;;;;;;;;;;1890529;76;21005;-59
2023/01/25 12:07:40;;;;;;;46.90;24.05;;;;;;;;;;1891055;76;21091;-59
2023/01/25 12:10:16;;;;;;;46.68;20.90;;;;;;;;;;1891950;76;21471;-59
2023/01/25 12:12:45;;;;;;;34.18;20.72;;;;;;;;;;1891748;76;21063;-59
2023/01/25 12:15:15;;;;;;;42.17;20.35;;;;;;;;;;1890858;76;21439;-59
2023/01/25 12:17:51;;;;;;;45.60;24.07;;;;;;;;;;1891068;76;21013;-59
2023/01/25 12:20:24;;;;;;;41.28;20.37;;;;;;;;;;1890870;76;21045;-59
2023/01/25 12:23:06;;;;;;;45.83;21.25;;;;;;;;;;1892160;76;21012;-59
2023/01/25 12:25:46;;;;;;;43.90;20.85;;;;;;;;;;1891565;76;21103;-59
2023/01/25 12:28:24;;;;;;;45.40;22.58;;;;;;;;;;1891047;76;21029;-59
2023/01/25 12:31:00;;;;;;;47.78;21.57;;;;;;;;;;1890267;76;21043;-58
2023/01/25 12:33:43;;;;;;;51.18;23.47;;;;;;;;;;1870915;77;21075;-59
2023/01/25 12:36:15;;;;;;;49.53;23.73;;;;;;;;;;1870658;77;21003;-58
2023/01/25 12:38:51;;;;;;;47.88;20.92;;;;;;;;;;1870788;77;21014;-59
2023/01/25 12:41:30;;;;;;;43.60;23.18;;;;;;;;;;1870908;77;21089;-59
2023/01/25 12:43:59;;;;;;;49.10;23.60;;;;;;;;;;1870628;76;21014;-59
2023/01/25 12:46:29;;;;;;;51.28;23.35;;;;;;;;;;1859401;77;21573;-59
2023/01/25 12:48:59;;;;;;;52.73;23.98;;;;;;;;;;1844447;77;21002;-59
2023/01/25 12:51:29;;;;;;;50.60;23.35;;;;;;;;;;1870884;77;21104;-59
2023/01/25 12:53:57;;;;;;;45.23;22.32;;;;;;;;;;1870285;76;21010;-59
2023/01/25 12:56:27;;;;;;;39.45;21.87;;;;;;;;;;1870966;77;21010;-59
2023/01/25 12:58:57;;;;;;;42.17;21.70;;;;;;;;;;1870806;77;20982;-59
2023/01/25 13:01:45;;;;;;;52.55;23.22;;;;;;;;;;1870623;77;21488;-59
2023/01/25 13:04:27;;;;;;;51.83;26.12;;;;;;;;;;1870641;76;21038;-59
2023/01/25 13:07:03;;;;;;;43.55;21.27;;;;;;;;;;1869683;76;21014;-59
2023/01/25 13:09:49;;;;;;;45.20;20.75;;;;;;;;;;1869406;76;21037;-59
2023/01/25 13:12:18;;;;;;;49.58;21.02;;;;;;;;;;1871011;77;21029;-59
2023/01/25 13:14:46;;;;;;;49.27;21.27;;;;;;;;;;1871024;77;21026;-59
2023/01/25 13:17:31;;;;;;;44.05;20.90;;;;;;;;;;1871101;77;21087;-59
2023/01/25 13:19:59;;;;;;;50.45;20.88;;;;;;;;;;1871132;77;21104;-59
2023/01/25 13:22:44;;;;;;;46.65;21.02;;;;;;;;;;1871105;77;21042;-59
2023/01/25 13:25:17;;;;;;;45.73;20.70;;;;;;;;;;1871126;77;21018;-59
2023/01/25 13:27:46;;;;;;;38.92;19.80;;;;;;;;;;1870932;77;21022;-58
2023/01/25 13:30:16;;;;;;;39.10;20.27;;;;;;;;;;1870988;77;21002;-59
2023/01/25 13:32:46;;;;;;;43.33;21.52;;;;;;;;;;1870919;76;21029;-59
2023/01/25 13:35:33;;;;;;;38.55;20.15;;;;;;;;;;1870933;77;21038;-58
2023/01/25 13:38:19;;;;;;;50.80;20.32;;;;;;;;;;1870940;77;21026;-59
2023/01/25 13:40:49;;;;;;;47.60;20.55;;;;;;;;;;1870918;76;21499;-59
2023/01/25 13:43:18;;;;;;;41.23;20.10;;;;;;;;;;1868934;76;21060;-59
2023/01/25 13:45:48;;;;;;;44.23;21.85;;;;;;;;;;1870974;77;21029;-59
2023/01/25 13:48:21;;;;;;;34.90;19.65;;;;;;;;;;1870967;77;21057;-59
2023/01/25 13:50:51;;;;;;;37.25;19.20;;;;;;;;;;1871106;77;21010;-59
2023/01/25 13:53:22;;;;;;;41.23;18.55;;;;;;;;;;1870132;76;21082;-59
2023/01/25 13:55:52;;;;;;;39.15;19.65;;;;;;;;;;1871022;77;20994;-59
2023/01/25 13:58:21;;;;;;;42.43;21.10;;;;;;;;;;1870976;77;21010;-59
2023/01/25 14:00:51;;;;;;;34.35;18.52;;;;;;;;;;1871023;77;21002;-59
2023/01/25 14:03:21;;;;;;;38.00;20.30;;;;;;;;;;1871062;76;21014;-59
2023/01/25 14:05:51;;;;;;;42.75;21.23;;;;;;;;;;1870946;77;21046;-60
2023/01/25 14:08:20;;;;;;;53.83;22.17;;;;;;;;;;1869167;76;21065;-60
2023/01/25 14:10:49;;;;;;;45.92;20.65;;;;;;;;;;1871007;77;21039;-60
2023/01/25 14:13:17;;;;;;;43.98;20.55;;;;;;;;;;1871015;77;20998;-59
2023/01/25 14:15:56;;;;;;;48.80;21.45;;;;;;;;;;1871012;77;21021;-58
2023/01/25 14:18:29;;;;;;;46.42;23.02;;;;;;;;;;1870981;77;21537;-59
2023/01/25 14:21:11;;;;;;;37.93;19.67;;;;;;;;;;1870992;77;21002;-59
2023/01/25 14:23:39;;;;;;;49.05;19.95;;;;;;;;;;1871022;77;21061;-59
2023/01/25 14:26:12;;;;;;;47.35;21.42;;;;;;;;;;1871004;77;21026;-60
2023/01/25 14:28:42;;;;;;;45.78;20.88;;;;;;;;;;1870357;76;21092;-59
2023/01/25 14:31:14;;;;;;;42.62;20.60;;;;;;;;;;1871003;77;21467;-60
2023/01/25 14:33:46;;;;;;;38.80;20.43;;;;;;;;;;1888546;76;21053;-59
2023/01/25 14:36:14;;;;;;;42.20;23.22;;;;;;;;;;1892014;76;21006;-59
2023/01/25 14:38:43;;;;;;;63.23;29.32;;;;;;;;;;1892082;76;21082;-60